Time;durP1;ratioP1;P1;durP2;ratioP2;P2;SDS_P1;SDS_P2;PMS_P1;PMS_P2;Temp;Humidity;BMP_temperature;BMP_pressure;BME280_temperature;BME280_humidity;BME280_pressure;Samples;Min_cycle;Max_cycle;Signal;HPM_P1;HPM_P2
2023/08/13 00:01:54;;;;;;;3.28;2.80;;;;;;;21.18;68.49;95072.44;5073788;28;20684;-44
2023/08/13 00:04:21;;;;;;;4.22;3.15;;;;;;;21.16;68.67;95066.63;5089375;28;20858;-43
2023/08/13 00:06:47;;;;;;;5.57;3.03;;;;;;;21.15;68.87;95064.22;5089759;28;20580;-43
2023/08/13 00:09:14;;;;;;;3.92;3.50;;;;;;;21.14;69.12;95062.63;5089110;28;20198;-42
2023/08/13 00:11:41;;;;;;;5.95;3.30;;;;;;;21.12;69.45;95068.03;5091614;28;20653;-43
2023/08/13 00:14:09;;;;;;;4.57;3.13;;;;;;;21.09;69.62;95067.59;5093428;28;20192;-43
2023/08/13 00:16:36;;;;;;;3.20;2.78;;;;;;;21.07;69.39;95072.19;5093683;28;20208;-42
2023/08/13 00:19:03;;;;;;;3.20;2.80;;;;;;;21.04;69.48;95070.78;5093441;28;20266;-43
2023/08/13 00:21:29;;;;;;;3.00;2.72;;;;;;;21.04;69.97;95070.78;5093740;28;20182;-43
2023/08/13 00:23:56;;;;;;;3.75;3.28;;;;;;;21.04;69.19;95066.38;5093547;28;20186;-45
2023/08/13 00:26:23;;;;;;;5.63;3.42;;;;;;;21.04;68.97;95068.97;5093438;28;20258;-46
2023/08/13 00:28:50;;;;;;;3.78;3.20;;;;;;;21.02;69.35;95067.56;5093273;28;20246;-44
2023/08/13 00:31:18;;;;;;;3.70;3.13;;;;;;;20.97;69.50;95072.53;5093028;28;20233;-42
2023/08/13 00:33:45;;;;;;;8.93;3.78;;;;;;;20.86;69.87;95060.91;5093505;28;20189;-43
2023/08/13 00:36:11;;;;;;;3.40;3.10;;;;;;;20.87;69.83;95075.50;5093190;28;20194;-44
2023/08/13 00:38:39;;;;;;;4.38;3.22;;;;;;;20.83;70.41;95071.66;5093272;28;20194;-43
2023/08/13 00:41:06;;;;;;;3.70;3.40;;;;;;;20.71;70.67;95068.78;5093213;28;20213;-42
2023/08/13 00:43:32;;;;;;;5.35;3.47;;;;;;;20.75;70.57;95072.63;5093357;28;20189;-43
2023/08/13 00:46:00;;;;;;;4.32;3.58;;;;;;;20.68;70.82;95069.19;5092974;28;20220;-46
2023/08/13 00:48:28;;;;;;;3.95;3.30;;;;;;;20.64;71.37;95073.16;5093228;28;20197;-44
2023/08/13 00:50:55;;;;;;;4.55;3.72;;;;;;;20.60;71.51;95068.53;5092964;28;20190;-44
2023/08/13 00:53:21;;;;;;;4.25;3.40;;;;;;;20.56;71.79;95069.91;5092793;28;20190;-44
2023/08/13 00:55:48;;;;;;;4.30;3.45;;;;;;;20.48;72.13;95069.06;5092503;28;20194;-44
2023/08/13 00:58:16;;;;;;;3.35;3.00;;;;;;;20.46;72.41;95065.81;5092570;28;20186;-42
2023/08/13 01:00:43;;;;;;;2.95;2.72;;;;;;;20.42;72.58;95072.41;5092292;28;20600;-42
2023/08/13 01:03:10;;;;;;;5.32;3.22;;;;;;;20.38;72.96;95065.13;5092741;28;20197;-43
2023/08/13 01:05:46;;;;;;;3.20;2.90;;;;;;;20.36;73.04;95061.94;5092723;28;20178;-43
2023/08/13 01:08:21;;;;;;;6.20;3.25;;;;;;;20.36;73.25;95067.94;5092926;28;20239;-41
2023/08/13 01:10:54;;;;;;;3.50;3.20;;;;;;;20.29;73.31;95061.88;5092223;28;20189;-42
2023/08/13 01:13:24;;;;;;;4.88;3.05;;;;;;;20.22;73.56;95055.84;5092631;28;20193;-43
2023/08/13 01:15:53;;;;;;;3.65;3.35;;;;;;;20.17;73.94;95061.59;5092519;28;20182;-43
2023/08/13 01:18:22;;;;;;;3.58;3.28;;;;;;;20.14;74.05;95058.56;5093461;28;20186;-44
2023/08/13 01:20:51;;;;;;;4.82;3.15;;;;;;;19.90;74.71;95028.59;5092225;28;20209;-43
2023/08/13 01:23:19;;;;;;;5.43;3.83;;;;;;;20.05;74.83;95057.91;5090853;28;20646;-43
2023/08/13 01:25:51;;;;;;;3.47;2.88;;;;;;;20.01;75.19;95059.28;5092023;28;20205;-41
2023/08/13 01:28:27;;;;;;;3.80;3.35;;;;;;;19.85;75.76;95031.75;5092211;28;20182;-41
2023/08/13 01:31:02;;;;;;;4.72;3.15;;;;;;;19.91;76.19;95054.41;5091652;28;20265;-43
2023/08/13 01:33:33;;;;;;;3.80;3.45;;;;;;;19.84;76.33;95056.13;5091804;28;20189;-43
2023/08/13 01:36:02;;;;;;;8.48;4.20;;;;;;;18.80;76.52;94900.84;5091764;28;20224;-45
2023/08/13 01:38:31;;;;;;;4.25;3.85;;;;;;;19.77;76.98;95061.25;5092255;28;20265;-43
2023/08/13 01:41:00;;;;;;;4.23;3.63;;;;;;;19.75;77.14;95059.84;5091770;28;20213;-43
2023/08/13 01:43:27;;;;;;;7.65;3.70;;;;;;;19.72;77.72;95062.78;5091879;28;20204;-42
2023/08/13 01:45:54;;;;;;;14.15;3.67;;;;;;;19.49;78.24;95035.19;5091955;28;20223;-44
2023/08/13 01:48:21;;;;;;;4.45;4.03;;;;;;;19.62;78.29;95067.50;5091818;28;20326;-43
2023/08/13 01:50:48;;;;;;;4.45;3.65;;;;;;;19.58;78.51;95059.22;5091601;28;20190;-41
2023/08/13 01:53:14;;;;;;;6.37;3.53;;;;;;;19.50;78.74;95048.97;5091620;28;20190;-42
2023/08/13 01:55:43;;;;;;;4.18;3.78;;;;;;;19.45;78.97;95049.53;5091747;28;20182;-42
2023/08/13 01:58:10;;;;;;;4.00;3.60;;;;;;;19.50;79.12;95059.34;5091564;28;20859;-43
2023/08/13 02:00:37;;;;;;;4.38;3.78;;;;;;;19.48;79.33;95062.13;5091643;28;20701;-43
2023/08/13 02:03:04;;;;;;;4.50;3.60;;;;;;;19.44;79.49;95058.28;5091396;28;20201;-43
2023/08/13 02:05:31;;;;;;;4.85;3.78;;;;;;;19.32;79.81;95057.16;5091491;28;20194;-43
2023/08/13 02:07:58;;;;;;;4.50;4.10;;;;;;;19.13;79.89;95029.19;5091324;28;20197;-42
2023/08/13 02:10:24;;;;;;;5.63;4.22;;;;;;;19.33;80.26;95050.19;5091557;28;20189;-42
2023/08/13 02:12:53;;;;;;;7.13;4.10;;;;;;;19.27;80.43;95056.91;5091149;28;20190;-42
2023/08/13 02:15:19;;;;;;;4.03;3.72;;;;;;;19.23;80.57;95059.06;5091494;28;20212;-43
2023/08/13 02:17:46;;;;;;;7.43;4.93;;;;;;;19.21;81.09;95055.84;5091018;28;20189;-42
2023/08/13 02:20:13;;;;;;;5.53;3.70;;;;;;;19.21;80.49;95063.63;5091061;28;20221;-42
2023/08/13 02:22:40;;;;;;;5.23;3.67;;;;;;;19.16;80.01;95052.19;5091039;28;20178;-42
2023/08/13 02:25:08;;;;;;;7.27;4.20;;;;;;;19.15;79.60;95060.94;5091242;28;20196;-42
2023/08/13 02:27:35;;;;;;;3.27;3.07;;;;;;;19.12;79.30;95056.91;5091101;28;20214;-42
2023/08/13 02:30:03;;;;;;;5.53;3.80;;;;;;;19.10;79.85;95058.91;5090946;28;20198;-42
2023/08/13 02:32:30;;;;;;;8.07;3.97;;;;;;;19.09;80.23;95062.50;5091279;28;20677;-42
2023/08/13 02:34:57;;;;;;;4.40;4.00;;;;;;;19.11;80.98;95067.47;5090291;28;20197;-42
2023/08/13 02:37:24;;;;;;;4.87;3.67;;;;;;;19.07;81.43;95066.22;5090838;28;20192;-42
2023/08/13 02:39:50;;;;;;;6.33;4.40;;;;;;;18.95;81.61;95064.09;5091085;28;20218;-43
2023/08/13 02:42:17;;;;;;;5.00;4.50;;;;;;;18.92;81.60;95063.66;5091189;28;20189;-45
2023/08/13 02:44:44;;;;;;;5.60;4.30;;;;;;;18.88;81.60;95065.00;5090628;28;20189;-44
2023/08/13 02:47:12;;;;;;;10.00;4.17;;;;;;;18.78;82.08;95068.69;5090872;28;20194;-42
2023/08/13 02:49:39;;;;;;;6.53;4.07;;;;;;;18.72;82.58;95065.97;5090685;28;20193;-43
2023/08/13 02:52:06;;;;;;;7.73;4.40;;;;;;;18.69;82.65;95074.91;5090726;28;20186;-42
2023/08/13 02:54:32;;;;;;;6.13;3.97;;;;;;;18.68;82.61;95073.28;5090569;28;20247;-45
2023/08/13 02:57:00;;;;;;;6.00;4.27;;;;;;;18.68;82.77;95075.06;5090385;28;20198;-44
2023/08/13 02:59:26;;;;;;;4.10;3.70;;;;;;;18.70;82.37;95076.53;5090383;28;20697;-43
2023/08/13 03:01:53;;;;;;;4.80;3.77;;;;;;;18.63;82.48;95077.38;5090369;28;20290;-42
2023/08/13 03:04:21;;;;;;;4.77;3.47;;;;;;;18.54;82.97;95068.91;5090761;28;20251;-42
2023/08/13 03:06:48;;;;;;;7.80;3.57;;;;;;;18.53;83.01;95069.88;5090004;28;20186;-43
2023/08/13 03:09:20;;;;;;;4.30;3.93;;;;;;;18.52;83.60;95076.84;5090334;28;20245;-42
2023/08/13 03:11:47;;;;;;;4.17;3.77;;;;;;;18.43;83.93;95075.28;5090170;28;20224;-45
2023/08/13 03:14:13;;;;;;;4.17;3.77;;;;;;;18.41;83.99;95071.28;5090120;28;20228;-43
2023/08/13 03:16:40;;;;;;;4.53;3.77;;;;;;;18.38;83.75;95075.03;5090662;28;20605;-41
2023/08/13 03:19:07;;;;;;;4.57;3.57;;;;;;;18.32;83.80;95069.75;5090050;28;20194;-43
2023/08/13 03:21:35;;;;;;;4.97;4.40;;;;;;;18.23;83.91;95071.63;5089754;28;20229;-43
2023/08/13 03:24:02;;;;;;;4.30;3.87;;;;;;;18.27;83.96;95081.44;5090113;28;20275;-43
2023/08/13 03:26:29;;;;;;;9.00;3.93;;;;;;;18.13;83.50;95060.69;5089869;28;20193;-44
2023/08/13 03:28:56;;;;;;;4.53;3.87;;;;;;;18.19;83.66;95078.94;5089943;28;20178;-43
2023/08/13 03:31:22;;;;;;;4.67;4.13;;;;;;;18.20;83.54;95085.72;5089591;28;20677;-42
2023/08/13 03:33:49;;;;;;;4.30;3.90;;;;;;;18.09;83.86;95069.78;5089821;28;20194;-43
2023/08/13 03:36:16;;;;;;;4.47;3.63;;;;;;;18.16;83.99;95075.88;5089667;28;20186;-43
2023/08/13 03:38:44;;;;;;;4.50;4.10;;;;;;;18.13;84.01;95071.84;5089823;28;20266;-42
2023/08/13 03:41:11;;;;;;;6.83;3.90;;;;;;;18.11;84.13;95079.00;5090001;28;20217;-42
2023/08/13 03:43:38;;;;;;;5.03;4.50;;;;;;;18.10;84.18;95079.97;5089420;28;20186;-43
2023/08/13 03:46:04;;;;;;;5.27;4.33;;;;;;;18.08;84.57;95071.56;5089331;28;20197;-43
2023/08/13 03:48:31;;;;;;;4.10;3.70;;;;;;;18.07;84.52;95075.13;5089240;28;20184;-41
2023/08/13 03:50:58;;;;;;;4.77;4.13;;;;;;;18.07;84.78;95079.50;5089654;28;20534;-43
2023/08/13 03:53:26;;;;;;;5.53;3.90;;;;;;;18.10;84.44;95084.34;5089787;28;20575;-44
2023/08/13 03:55:54;;;;;;;3.90;3.53;;;;;;;18.13;84.62;95078.81;5089759;28;20189;-43
2023/08/13 03:58:21;;;;;;;4.93;4.17;;;;;;;18.21;84.46;95084.72;5089375;28;20197;-41
2023/08/13 04:00:47;;;;;;;4.30;3.90;;;;;;;18.23;84.50;95077.59;5089595;28;20209;-43
2023/08/13 04:03:14;;;;;;;5.17;3.93;;;;;;;18.26;84.57;95081.59;5089464;28;20182;-43
2023/08/13 04:05:41;;;;;;;4.90;3.87;;;;;;;18.25;84.21;95080.00;5089518;28;20193;-42
2023/08/13 04:08:08;;;;;;;4.00;3.57;;;;;;;18.27;84.30;95085.81;5089308;28;20198;-41
2023/08/13 04:10:34;;;;;;;7.03;3.77;;;;;;;18.27;83.79;95089.22;5089548;28;20615;-43
2023/08/13 04:13:03;;;;;;;7.60;4.17;;;;;;;18.21;83.72;95076.16;5089351;28;20215;-44
2023/08/13 04:15:29;;;;;;;5.43;3.87;;;;;;;18.28;83.91;95090.81;5089226;28;20297;-43
2023/08/13 04:17:57;;;;;;;5.13;3.70;;;;;;;18.29;84.10;95089.84;5089182;28;20185;-43
2023/08/13 04:20:24;;;;;;;8.03;3.67;;;;;;;18.32;84.19;95096.47;5089193;28;20685;-44
2023/08/13 04:22:51;;;;;;;6.60;3.47;;;;;;;18.35;84.07;95106.47;5089324;28;20193;-44
2023/08/13 04:25:17;;;;;;;4.23;3.80;;;;;;;18.44;83.71;95099.44;5089162;28;20186;-43
2023/08/13 04:27:44;;;;;;;7.03;3.73;;;;;;;18.50;83.41;95101.31;5089518;28;20256;-44
2023/08/13 04:30:13;;;;;;;6.57;4.27;;;;;;;18.56;82.97;95098.81;5089030;28;20189;-43
2023/08/13 04:32:40;;;;;;;4.37;3.90;;;;;;;18.55;82.87;95107.56;5089124;28;20186;-44
2023/08/13 04:35:07;;;;;;;6.47;4.17;;;;;;;18.63;82.63;95117.03;5088985;28;20201;-43
2023/08/13 04:37:34;;;;;;;4.90;4.40;;;;;;;18.66;82.42;95111.53;5089116;28;20194;-44
2023/08/13 04:40:01;;;;;;;6.43;3.77;;;;;;;18.73;82.01;95117.63;5089110;28;20194;-45
2023/08/13 04:42:28;;;;;;;5.23;3.87;;;;;;;18.78;81.43;95114.50;5089186;28;20229;-44
2023/08/13 04:44:55;;;;;;;6.07;4.40;;;;;;;18.91;81.17;95117.28;5089055;28;20217;-41
2023/08/13 04:47:23;;;;;;;7.23;3.70;;;;;;;19.05;80.84;95113.88;5089438;28;20182;-43
2023/08/13 04:49:50;;;;;;;4.67;4.07;;;;;;;19.30;80.13;95118.78;5089399;28;20186;-44
2023/08/13 04:52:17;;;;;;;10.03;4.00;;;;;;;19.63;78.93;95124.38;5089120;28;20216;-44
2023/08/13 04:54:45;;;;;;;13.13;4.57;;;;;;;19.98;77.18;95124.53;5089337;28;20571;-42
2023/08/13 04:57:12;;;;;;;5.25;4.20;;;;;;;20.26;75.33;95106.44;5090181;28;20193;-42
2023/08/13 04:59:39;;;;;;;6.23;3.73;;;;;;;20.67;73.58;95127.34;5092570;28;20536;-44
2023/08/13 05:02:06;;;;;;;7.80;4.15;;;;;;;21.00;72.13;95129.38;5092288;28;20562;-44
2023/08/13 05:04:34;;;;;;;3.58;3.28;;;;;;;21.10;70.95;95101.22;5092663;28;20194;-44
2023/08/13 05:07:01;;;;;;;4.25;3.90;;;;;;;21.69;68.92;95128.50;5092625;28;20181;-42
2023/08/13 05:09:27;;;;;;;4.70;4.18;;;;;;;21.87;67.66;95133.16;5093042;28;20182;-44
2023/08/13 05:11:54;;;;;;;5.57;4.28;;;;;;;22.04;66.65;95130.00;5092654;28;20204;-46
2023/08/13 05:14:22;;;;;;;4.32;3.95;;;;;;;22.18;65.78;95115.19;5093439;28;20289;-43
2023/08/13 05:16:49;;;;;;;4.47;3.97;;;;;;;22.53;65.01;95143.69;5092201;28;20596;-43
2023/08/13 05:19:16;;;;;;;4.40;3.58;;;;;;;22.84;63.91;95134.44;5092232;28;20197;-44
2023/08/13 05:21:44;;;;;;;6.22;3.70;;;;;;;23.03;62.71;95136.25;5092370;28;20286;-43
2023/08/13 05:24:11;;;;;;;4.50;3.92;;;;;;;23.12;61.99;95139.44;5092363;28;20194;-44
2023/08/13 05:26:38;;;;;;;4.47;3.85;;;;;;;23.09;61.92;95140.66;5092511;28;20178;-44
2023/08/13 05:29:05;;;;;;;5.38;4.55;;;;;;;23.11;62.19;95135.25;5092072;28;20194;-45
2023/08/13 05:31:31;;;;;;;4.28;3.88;;;;;;;23.28;61.48;95137.19;5092096;28;20224;-43
2023/08/13 05:33:58;;;;;;;7.05;4.45;;;;;;;23.35;60.85;95128.53;5091836;28;20230;-43
2023/08/13 05:36:25;;;;;;;15.00;4.40;;;;;;;23.38;61.08;95130.75;5092022;28;20182;-43
2023/08/13 05:38:53;;;;;;;7.60;4.85;;;;;;;23.47;60.96;95130.31;5091902;28;20182;-45
2023/08/13 05:41:20;;;;;;;6.10;4.90;;;;;;;23.67;60.23;95132.88;5092061;28;20693;-42
2023/08/13 05:43:47;;;;;;;8.40;5.03;;;;;;;23.76;60.05;95136.03;5091656;28;20213;-43
2023/08/13 05:46:14;;;;;;;4.97;4.45;;;;;;;23.84;59.10;95143.63;5092263;28;20189;-44
2023/08/13 05:48:41;;;;;;;7.35;4.25;;;;;;;23.95;58.86;95134.31;5091748;28;20277;-43
2023/08/13 05:51:08;;;;;;;7.25;4.20;;;;;;;24.02;58.69;95127.25;5092167;28;20186;-43
2023/08/13 05:53:34;;;;;;;3.97;3.47;;;;;;;24.21;58.77;95136.78;5091693;28;20189;-44
2023/08/13 05:56:03;;;;;;;5.07;4.05;;;;;;;24.49;57.93;95144.25;5091961;28;20196;-44
2023/08/13 05:58:30;;;;;;;5.97;4.20;;;;;;;24.89;56.32;95140.50;5091750;28;20198;-45
2023/08/13 06:00:56;;;;;;;6.80;4.45;;;;;;;25.05;55.98;95142.56;5091379;28;20692;-44
2023/08/13 06:03:23;;;;;;;6.35;3.72;;;;;;;25.16;55.09;95146.28;5091240;28;20190;-44
2023/08/13 06:05:50;;;;;;;7.88;4.00;;;;;;;25.23;54.93;95150.47;5091264;28;20189;-44
2023/08/13 06:08:18;;;;;;;5.82;4.00;;;;;;;25.21;55.07;95128.13;5091297;28;20200;-45
2023/08/13 06:10:44;;;;;;;5.35;3.78;;;;;;;25.33;54.56;95151.75;5090844;28;20239;-44
2023/08/13 06:13:13;;;;;;;4.93;3.80;;;;;;;25.29;54.80;95151.41;5091641;28;20721;-43
2023/08/13 06:15:40;;;;;;;5.55;3.90;;;;;;;25.30;55.01;95142.50;5091210;28;20190;-44
2023/08/13 06:18:07;;;;;;;5.63;3.50;;;;;;;25.57;54.47;95144.84;5091654;28;20182;-43
2023/08/13 06:20:34;;;;;;;4.88;4.10;;;;;;;25.68;53.87;95123.13;5091083;28;20687;-42
2023/08/13 06:23:01;;;;;;;6.65;3.50;;;;;;;26.05;52.54;95144.88;5091152;28;20283;-43
2023/08/13 06:25:27;;;;;;;7.20;4.40;;;;;;;26.14;51.48;95137.47;5090950;28;20665;-41
2023/08/13 06:27:54;;;;;;;6.50;4.03;;;;;;;26.07;51.57;95150.66;5090783;28;20641;-43
2023/08/13 06:30:24;;;;;;;5.75;3.78;;;;;;;26.07;52.40;95147.25;5090388;28;20218;-42
2023/08/13 06:32:50;;;;;;;5.38;4.22;;;;;;;26.32;51.27;95153.16;5090992;28;20198;-42
2023/08/13 06:35:17;;;;;;;4.30;3.88;;;;;;;26.52;50.78;95152.88;5091268;28;20201;-43
2023/08/13 06:37:45;;;;;;;8.10;4.45;;;;;;;26.45;50.88;95150.34;5090975;28;20193;-43
2023/08/13 06:40:13;;;;;;;4.60;3.58;;;;;;;26.30;51.58;95125.56;5091118;28;20267;-44
2023/08/13 06:42:39;;;;;;;4.32;3.95;;;;;;;26.46;50.90;95149.31;5090554;28;20815;-44
2023/08/13 06:45:07;;;;;;;4.22;3.83;;;;;;;26.49;50.60;95151.50;5090766;28;20185;-43
2023/08/13 06:47:35;;;;;;;8.02;4.28;;;;;;;26.60;50.42;95142.06;5090522;28;20189;-43
2023/08/13 06:50:03;;;;;;;4.43;3.85;;;;;;;26.70;49.99;95150.16;5090639;28;20186;-43
2023/08/13 06:52:30;;;;;;;6.53;4.20;;;;;;;26.87;49.94;95147.66;5090778;28;20246;-43
2023/08/13 06:54:57;;;;;;;6.80;4.22;;;;;;;26.99;49.85;95148.47;5090854;28;20202;-44
2023/08/13 06:57:24;;;;;;;4.10;3.70;;;;;;;27.11;49.71;95151.09;5090395;28;20622;-44
2023/08/13 06:59:50;;;;;;;4.93;3.78;;;;;;;27.43;48.97;95142.84;5090354;28;20193;-43
2023/08/13 07:02:17;;;;;;;5.35;4.05;;;;;;;27.78;47.73;95142.00;5090306;28;20225;-45
2023/08/13 07:04:45;;;;;;;4.82;3.45;;;;;;;28.19;46.21;95143.50;5090542;28;20200;-43
2023/08/13 07:07:12;;;;;;;4.63;4.15;;;;;;;28.44;45.96;95135.28;5089932;28;20197;-42
2023/08/13 07:09:39;;;;;;;3.90;3.60;;;;;;;28.73;45.41;95139.44;5090312;28;20213;-44
2023/08/13 07:12:06;;;;;;;7.80;4.05;;;;;;;29.00;43.93;95136.97;5090606;28;20196;-44
2023/08/13 07:14:33;;;;;;;3.45;3.15;;;;;;;29.16;43.19;95126.66;5090551;28;20221;-43
2023/08/13 07:17:00;;;;;;;3.40;3.10;;;;;;;29.30;42.86;95132.34;5090164;28;20200;-43
2023/08/13 07:19:27;;;;;;;4.45;3.42;;;;;;;29.52;42.75;95135.00;5090212;28;20251;-42
2023/08/13 07:21:55;;;;;;;5.25;3.38;;;;;;;29.65;41.84;95129.38;5090433;28;20558;-44
2023/08/13 07:24:21;;;;;;;3.97;3.40;;;;;;;29.92;41.55;95132.03;5090054;28;20184;-44
2023/08/13 07:26:48;;;;;;;5.55;3.33;;;;;;;30.10;41.17;95133.56;5090140;28;20263;-44
2023/08/13 07:29:15;;;;;;;4.35;3.13;;;;;;;30.28;39.94;95133.22;5089441;28;20322;-44
2023/08/13 07:31:42;;;;;;;4.40;3.60;;;;;;;30.37;40.39;95131.72;5089558;28;20229;-44
2023/08/13 07:34:09;;;;;;;6.07;3.55;;;;;;;30.59;40.63;95134.28;5089376;28;20536;-44
2023/08/13 07:36:36;;;;;;;6.93;3.95;;;;;;;30.71;39.42;95134.09;5089855;28;20661;-45
2023/08/13 07:39:05;;;;;;;5.78;3.92;;;;;;;30.72;39.24;95133.09;5089968;28;20573;-42
2023/08/13 07:41:31;;;;;;;7.35;3.20;;;;;;;30.77;39.22;95122.53;5089523;28;20251;-43
2023/08/13 07:43:58;;;;;;;4.40;3.30;;;;;;;30.62;39.17;95128.50;5089395;28;20268;-44
2023/08/13 07:46:25;;;;;;;8.25;3.30;;;;;;;30.68;38.74;95126.69;5089922;28;20698;-44
2023/08/13 07:48:52;;;;;;;4.20;3.53;;;;;;;30.60;38.76;95116.59;5089649;28;20197;-43
2023/08/13 07:51:20;;;;;;;3.78;3.47;;;;;;;30.53;39.08;95116.81;5089300;28;20663;-44
2023/08/13 07:53:46;;;;;;;4.82;3.03;;;;;;;30.57;39.03;95119.72;5089776;28;20294;-44
2023/08/13 07:56:15;;;;;;;5.20;3.50;;;;;;;30.50;39.19;95106.75;5089275;28;20196;-44
2023/08/13 07:58:41;;;;;;;7.07;3.63;;;;;;;30.77;38.06;95114.63;5089763;28;20190;-44
2023/08/13 08:01:08;;;;;;;5.53;3.80;;;;;;;30.66;38.47;95092.63;5089289;28;20266;-44
2023/08/13 08:03:35;;;;;;;6.65;3.38;;;;;;;30.71;38.37;95115.63;5089829;28;20221;-44
2023/08/13 08:06:02;;;;;;;5.30;2.85;;;;;;;30.83;38.10;95115.44;5089525;28;20185;-42
2023/08/13 08:08:28;;;;;;;4.85;3.08;;;;;;;30.82;37.59;95116.50;5089647;28;20267;-44
2023/08/13 08:10:55;;;;;;;6.93;3.20;;;;;;;30.95;37.29;95111.56;5089087;28;20182;-43
2023/08/13 08:13:23;;;;;;;3.42;3.13;;;;;;;30.91;38.07;95114.97;5089127;28;20657;-43
2023/08/13 08:15:50;;;;;;;5.60;3.13;;;;;;;30.84;38.09;95111.78;5089409;28;20186;-44
2023/08/13 08:18:17;;;;;;;4.95;2.67;;;;;;;30.88;37.74;95105.72;5089284;28;20224;-43
2023/08/13 08:20:44;;;;;;;5.53;3.78;;;;;;;30.73;38.12;95108.25;5089553;28;20197;-42
2023/08/13 08:23:10;;;;;;;4.35;3.15;;;;;;;30.65;38.28;95098.13;5089047;28;20217;-42
2023/08/13 08:25:37;;;;;;;6.60;3.17;;;;;;;30.82;37.23;95105.94;5089408;28;20209;-43
2023/08/13 08:28:04;;;;;;;4.85;3.10;;;;;;;30.75;37.21;95095.63;5089349;28;20189;-44
2023/08/13 08:30:33;;;;;;;3.22;2.90;;;;;;;30.82;37.67;95090.88;5089240;28;20616;-43
2023/08/13 08:32:59;;;;;;;6.00;3.00;;;;;;;30.69;37.70;95075.44;5091722;28;20260;-44
2023/08/13 08:35:26;;;;;;;3.42;2.75;;;;;;;30.83;37.09;95083.75;5093321;28;20280;-43
2023/08/13 08:37:53;;;;;;;4.43;3.25;;;;;;;30.89;37.27;95072.19;5093317;28;20190;-42
2023/08/13 08:40:20;;;;;;;4.28;3.10;;;;;;;30.93;37.54;95081.19;5093372;28;20181;-44
2023/08/13 08:42:47;;;;;;;2.70;2.50;;;;;;;30.73;36.39;95085.28;5092892;28;20701;-44
2023/08/13 08:45:17;;;;;;;3.00;2.80;;;;;;;30.75;36.75;95076.34;5093475;28;20231;-44
2023/08/13 08:47:46;;;;;;;2.65;2.45;;;;;;;30.79;37.26;95075.56;5093218;28;20553;-43
2023/08/13 08:50:13;;;;;;;4.70;3.20;;;;;;;30.79;36.73;95074.78;5093545;28;20194;-43
2023/08/13 08:52:40;;;;;;;3.05;2.75;;;;;;;30.53;37.50;95076.41;5092888;28;20259;-44
2023/08/13 08:55:10;;;;;;;4.75;2.85;;;;;;;30.45;37.63;95075.03;5092788;28;20719;-44
2023/08/13 08:57:37;;;;;;;3.05;2.85;;;;;;;30.44;37.40;95083.97;5092758;28;20194;-44
2023/08/13 09:00:04;;;;;;;4.57;3.13;;;;;;;30.39;37.12;95081.31;5093072;28;20190;-44
2023/08/13 09:02:31;;;;;;;3.90;2.78;;;;;;;30.21;37.35;95046.34;5093162;28;20320;-44
2023/08/13 09:04:59;;;;;;;3.45;3.10;;;;;;;30.36;36.92;95076.56;5092954;28;20186;-41
2023/08/13 09:07:30;;;;;;;3.97;2.88;;;;;;;30.34;36.69;95068.88;5093717;28;20629;-43
2023/08/13 09:09:57;;;;;;;3.00;2.80;;;;;;;30.32;36.99;95064.91;5093095;28;20726;-43
2023/08/13 09:12:24;;;;;;;3.25;2.78;;;;;;;30.34;36.71;95066.22;5092763;28;20604;-45
2023/08/13 09:14:55;;;;;;;3.00;2.70;;;;;;;30.36;36.57;95066.00;5092985;28;20205;-45
2023/08/13 09:17:24;;;;;;;2.80;2.55;;;;;;;30.30;36.49;95059.06;5092905;28;20214;-45
2023/08/13 09:19:51;;;;;;;3.70;2.88;;;;;;;30.13;36.69;95064.44;5092419;28;20595;-43
2023/08/13 09:22:19;;;;;;;3.80;2.92;;;;;;;30.20;36.80;95052.69;5092536;28;20712;-43
2023/08/13 09:24:48;;;;;;;3.50;2.92;;;;;;;30.19;37.57;95040.53;5092626;28;20182;-42
2023/08/13 09:27:15;;;;;;;3.72;2.75;;;;;;;30.27;37.39;95055.13;5092877;28;20193;-43
2023/08/13 09:29:42;;;;;;;3.05;2.78;;;;;;;30.29;37.33;95041.66;5092511;28;20198;-44
2023/08/13 09:32:09;;;;;;;3.47;2.60;;;;;;;30.34;37.18;95055.69;5092647;28;20244;-44
2023/08/13 09:34:36;;;;;;;2.70;2.50;;;;;;;29.98;37.38;94986.78;5092553;28;20200;-46
2023/08/13 09:37:03;;;;;;;3.45;2.63;;;;;;;30.31;37.42;95052.75;5092099;28;20306;-44
2023/08/13 09:39:32;;;;;;;2.88;2.67;;;;;;;30.35;37.07;95041.44;5091998;28;20185;-46
2023/08/13 09:41:59;;;;;;;2.83;2.60;;;;;;;30.27;37.09;95049.00;5092084;28;20196;-44
2023/08/13 09:44:26;;;;;;;4.00;3.30;;;;;;;30.09;37.81;95043.03;5090389;28;20208;-44
2023/08/13 09:46:55;;;;;;;4.18;3.22;;;;;;;30.03;37.70;95051.97;5091905;28;20268;-44
2023/08/13 09:49:23;;;;;;;3.50;3.08;;;;;;;29.89;38.11;95048.16;5091938;28;20185;-44
2023/08/13 09:51:52;;;;;;;4.50;2.58;;;;;;;29.80;38.16;95052.28;5091690;28;20217;-43
2023/08/13 09:54:29;;;;;;;4.43;2.65;;;;;;;29.57;38.69;95048.88;5092089;28;20185;-43
2023/08/13 09:57:03;;;;;;;3.35;3.05;;;;;;;29.38;39.24;95055.50;5092064;28;20288;-44
2023/08/13 09:59:32;;;;;;;5.72;3.22;;;;;;;29.42;39.36;95036.31;5091135;28;20197;-44
2023/08/13 10:01:59;;;;;;;3.15;2.83;;;;;;;29.55;39.66;95044.91;5091557;28;20197;-43
2023/08/13 10:04:27;;;;;;;3.83;3.10;;;;;;;29.43;39.68;95045.03;5091471;28;20193;-45
2023/08/13 10:06:56;;;;;;;3.50;2.95;;;;;;;29.25;40.36;95041.66;5091885;28;20205;-45
2023/08/13 10:09:23;;;;;;;3.10;2.85;;;;;;;29.11;40.20;95037.81;5091744;28;20193;-43
2023/08/13 10:11:49;;;;;;;4.47;3.03;;;;;;;28.95;40.37;95042.06;5091495;28;20186;-45
2023/08/13 10:14:18;;;;;;;3.63;3.17;;;;;;;28.92;40.29;95041.75;5091598;28;20189;-42
2023/08/13 10:16:47;;;;;;;5.78;3.05;;;;;;;29.00;40.35;95042.16;5091752;28;20178;-43
2023/08/13 10:19:14;;;;;;;3.33;2.83;;;;;;;28.89;40.60;95026.44;5091374;28;20666;-42
2023/08/13 10:21:41;;;;;;;3.10;2.80;;;;;;;28.93;40.34;95044.16;5091529;28;20264;-41
2023/08/13 10:24:12;;;;;;;3.58;2.80;;;;;;;28.98;40.65;95043.44;5091345;28;20282;-44
2023/08/13 10:26:41;;;;;;;3.70;3.00;;;;;;;29.06;40.55;95043.03;5091197;28;20597;-42
2023/08/13 10:29:15;;;;;;;2.88;2.67;;;;;;;29.14;39.88;95026.78;5090873;28;20574;-42
2023/08/13 10:31:49;;;;;;;5.32;3.58;;;;;;;29.23;39.34;95011.31;5090588;28;20260;-43
2023/08/13 10:34:18;;;;;;;3.30;3.00;;;;;;;29.43;40.05;95037.91;5091025;28;20193;-44
2023/08/13 10:36:47;;;;;;;3.03;2.75;;;;;;;29.30;39.83;95029.59;5091145;28;20293;-44
2023/08/13 10:39:34;;;;;;;4.90;3.15;;;;;;;29.30;40.16;95025.13;5091063;28;20246;-43
2023/08/13 10:42:02;;;;;;;4.10;3.22;;;;;;;29.22;40.15;95025.53;5090855;28;20197;-42
2023/08/13 10:44:29;;;;;;;3.85;3.28;;;;;;;29.13;40.58;95025.19;5090729;28;20221;-41
2023/08/13 10:46:58;;;;;;;4.00;3.30;;;;;;;29.16;40.72;95031.81;5090684;28;20224;-42
2023/08/13 10:49:26;;;;;;;4.03;3.20;;;;;;;29.06;40.68;95010.59;5090864;28;20190;-43
2023/08/13 10:51:54;;;;;;;4.68;3.30;;;;;;;29.18;40.20;95029.72;5090814;28;20250;-42
2023/08/13 10:54:24;;;;;;;3.25;2.95;;;;;;;29.08;40.53;95019.88;5090588;28;20649;-43
2023/08/13 10:56:57;;;;;;;7.68;3.40;;;;;;;29.09;41.02;95034.63;5090270;28;20221;-44
2023/08/13 10:59:31;;;;;;;3.42;3.03;;;;;;;29.04;40.50;95020.59;5090880;28;20189;-44
2023/08/13 11:02:14;;;;;;;4.63;3.30;;;;;;;29.13;41.08;95019.91;5091578;28;20242;-42
2023/08/13 11:04:43;;;;;;;3.25;2.95;;;;;;;29.16;40.86;95013.38;5090475;28;20193;-43
2023/08/13 11:07:10;;;;;;;3.33;2.83;;;;;;;29.24;40.14;95018.22;5090274;28;20189;-43
2023/08/13 11:09:38;;;;;;;3.30;3.00;;;;;;;29.39;40.43;95017.56;5090140;28;20580;-42
2023/08/13 11:12:06;;;;;;;2.92;2.65;;;;;;;29.28;39.97;95003.50;5089884;28;20186;-43
2023/08/13 11:14:33;;;;;;;3.33;3.03;;;;;;;29.39;40.38;95009.66;5090214;28;20297;-44
2023/08/13 11:17:00;;;;;;;3.55;3.25;;;;;;;29.44;40.27;95004.44;5089822;28;20707;-44
2023/08/13 11:19:28;;;;;;;4.50;3.15;;;;;;;29.41;40.39;95004.97;5090176;28;20546;-44
2023/08/13 11:21:58;;;;;;;5.38;3.20;;;;;;;29.30;40.61;95003.25;5090082;28;20185;-44
2023/08/13 11:24:24;;;;;;;3.42;3.10;;;;;;;29.24;39.89;95003.19;5089589;28;20970;-43
2023/08/13 11:26:53;;;;;;;3.65;3.28;;;;;;;29.26;40.19;95000.31;5090091;28;20235;-42
2023/08/13 11:29:20;;;;;;;4.55;3.25;;;;;;;29.19;40.46;94997.88;5090057;28;20193;-43
2023/08/13 11:31:47;;;;;;;3.20;2.92;;;;;;;29.21;41.00;95002.88;5089770;28;20343;-42
2023/08/13 11:34:15;;;;;;;3.28;3.00;;;;;;;29.35;40.19;94996.19;5090020;28;20554;-45
2023/08/13 11:36:43;;;;;;;4.78;3.25;;;;;;;29.41;40.06;95007.59;5089704;28;20186;-43